createdAt,value
2023-03-02T00:00:06.504Z,9.77
2023-03-02T00:02:52.192Z,10.70
2023-03-02T00:05:38.587Z,8.90
2023-03-02T00:08:24.183Z,9.83
2023-03-02T00:11:09.690Z,8.90
2023-03-02T00:13:55.128Z,9.70
2023-03-02T00:16:40.686Z,10.03
2023-03-02T00:19:26.045Z,10.03
2023-03-02T00:22:11.482Z,9.60
2023-03-02T00:24:57.038Z,11.57
2023-03-02T00:27:43.201Z,8.90
2023-03-02T00:30:28.624Z,11.03
2023-03-02T00:33:14.068Z,8.87
2023-03-02T00:35:59.262Z,11.07
2023-03-02T00:38:44.998Z,10.13
2023-03-02T00:41:30.658Z,8.80
2023-03-02T00:44:17.837Z,10.77
2023-03-02T00:47:03.582Z,9.60
2023-03-02T00:49:49.255Z,10.23
2023-03-02T00:52:34.915Z,9.60
2023-03-02T00:55:20.102Z,9.27
2023-03-02T00:58:06.168Z,9.13
2023-03-02T01:00:51.720Z,9.47
2023-03-02T01:03:37.848Z,10.73
2023-03-02T01:06:23.845Z,9.00
2023-03-02T01:09:09.228Z,9.20
2023-03-02T01:11:54.876Z,9.53
2023-03-02T01:14:44.044Z,8.47
2023-03-02T01:17:30.661Z,9.90
2023-03-02T01:20:17.016Z,9.27
2023-03-02T01:23:02.713Z,9.73
2023-03-02T01:25:48.006Z,8.93
2023-03-02T01:28:33.698Z,10.63
2023-03-02T01:31:18.764Z,12.60
2023-03-02T01:34:04.088Z,8.30
2023-03-02T01:36:49.247Z,9.80
2023-03-02T01:39:34.606Z,12.60
2023-03-02T01:42:20.003Z,12.90
2023-03-02T01:45:26.366Z,11.63
2023-03-02T01:48:13.871Z,10.90
2023-03-02T01:51:01.939Z,13.47
2023-03-02T01:53:51.068Z,9.67
2023-03-02T01:56:41.078Z,9.83
2023-03-02T01:59:30.226Z,11.07
2023-03-02T02:02:15.821Z,9.70
2023-03-02T02:05:02.213Z,10.63
2023-03-02T02:07:47.485Z,9.83
2023-03-02T02:10:34.264Z,10.23
2023-03-02T02:13:19.850Z,12.00
2023-03-02T02:16:06.793Z,10.33
2023-03-02T02:18:52.790Z,9.53
2023-03-02T02:21:38.119Z,10.10
2023-03-02T02:24:37.141Z,9.10
2023-03-02T02:27:22.696Z,11.30
2023-03-02T02:30:10.638Z,8.43
2023-03-02T02:32:58.372Z,10.07
2023-03-02T02:35:46.634Z,11.43
2023-03-02T02:38:33.838Z,10.33
2023-03-02T02:41:24.783Z,10.30
2023-03-02T02:44:15.903Z,9.97
2023-03-02T02:47:01.389Z,9.33
2023-03-02T02:49:49.914Z,8.80
2023-03-02T02:52:35.473Z,10.33
2023-03-02T02:55:24.016Z,9.70
2023-03-02T02:58:26.154Z,9.00
2023-03-02T03:01:17.946Z,11.43
2023-03-02T03:04:06.516Z,9.27
2023-03-02T03:06:53.986Z,10.37
2023-03-02T03:09:39.595Z,9.97
2023-03-02T03:12:28.939Z,9.07
2023-03-02T03:15:15.028Z,10.20
2023-03-02T03:18:00.184Z,8.40
2023-03-02T03:20:46.814Z,9.23
2023-03-02T03:23:32.270Z,11.13
2023-03-02T03:26:18.056Z,10.17
2023-03-02T03:29:05.239Z,8.67
2023-03-02T03:31:51.609Z,9.80
2023-03-02T03:34:38.334Z,9.17
2023-03-02T03:37:23.877Z,9.40
2023-03-02T03:40:09.889Z,9.73
2023-03-02T03:42:57.849Z,10.57
2023-03-02T03:45:43.305Z,10.67
2023-03-02T03:48:28.755Z,9.93
2023-03-02T03:51:14.030Z,9.67
2023-03-02T03:54:00.034Z,11.27
2023-03-02T03:56:50.909Z,10.00
2023-03-02T03:59:37.326Z,9.30
2023-03-02T04:02:24.169Z,10.67
2023-03-02T04:05:10.988Z,10.37
2023-03-02T04:07:56.455Z,9.50
2023-03-02T04:10:41.891Z,10.03
2023-03-02T04:13:27.377Z,10.37
2023-03-02T04:16:13.046Z,11.83
2023-03-02T04:18:58.885Z,10.53
2023-03-02T04:21:48.776Z,10.77
2023-03-02T04:24:35.970Z,11.87
2023-03-02T04:27:22.688Z,10.20
2023-03-02T04:30:09.039Z,10.33
2023-03-02T04:32:54.862Z,9.50
2023-03-02T04:35:40.524Z,10.23
2023-03-02T04:38:26.359Z,11.23
2023-03-02T04:41:11.693Z,10.97
2023-03-02T04:43:57.168Z,13.10
2023-03-02T04:46:44.833Z,8.70
2023-03-02T04:49:30.509Z,9.57
2023-03-02T04:52:16.389Z,10.73
2023-03-02T04:55:02.093Z,9.67
2023-03-02T04:57:47.936Z,10.43
2023-03-02T05:00:34.400Z,9.87
2023-03-02T05:03:19.903Z,11.87
2023-03-02T05:06:06.021Z,9.83
2023-03-02T05:08:52.878Z,12.87
2023-03-02T05:11:38.714Z,11.20
2023-03-02T05:14:25.002Z,10.93
2023-03-02T05:17:10.528Z,13.23
2023-03-02T05:19:55.945Z,10.80
2023-03-02T05:22:41.926Z,11.30
2023-03-02T05:25:30.312Z,10.80
2023-03-02T05:28:16.086Z,11.77
2023-03-02T05:31:01.657Z,12.87
2023-03-02T05:33:48.042Z,11.10
2023-03-02T05:36:33.810Z,11.63
2023-03-02T05:39:19.388Z,10.27
2023-03-02T05:42:04.477Z,11.30
2023-03-02T05:44:49.912Z,10.07
2023-03-02T05:47:35.177Z,12.93
2023-03-02T05:50:21.360Z,12.20
2023-03-02T05:53:07.772Z,12.87
2023-03-02T05:55:53.844Z,11.63
2023-03-02T05:58:39.292Z,13.03
2023-03-02T06:01:24.682Z,11.60
2023-03-02T06:04:10.052Z,12.37
2023-03-02T06:06:56.427Z,12.23
2023-03-02T06:09:41.972Z,12.40
2023-03-02T06:12:27.363Z,12.63
2023-03-02T06:15:13.209Z,11.80
2023-03-02T06:17:58.511Z,12.37
2023-03-02T06:20:43.815Z,11.33
2023-03-02T06:23:29.348Z,13.73
2023-03-02T06:26:14.662Z,11.93
2023-03-02T06:29:00.132Z,12.93
2023-03-02T06:31:45.641Z,15.07
2023-03-02T06:34:31.430Z,13.50
2023-03-02T06:37:16.769Z,12.10
2023-03-02T06:40:03.057Z,12.73
2023-03-02T06:42:48.184Z,11.07
2023-03-02T06:45:33.535Z,12.40
2023-03-02T06:48:18.903Z,14.23
2023-03-02T06:51:04.798Z,13.43
2023-03-02T06:53:50.253Z,11.47
2023-03-02T06:56:35.959Z,10.83
2023-03-02T06:59:20.988Z,13.33
2023-03-02T07:02:06.738Z,11.63
2023-03-02T07:04:51.871Z,11.83
2023-03-02T07:07:37.531Z,11.83
2023-03-02T07:10:23.018Z,12.50
2023-03-02T07:13:09.376Z,12.13
2023-03-02T07:15:54.567Z,12.60
2023-03-02T07:18:40.791Z,12.30
2023-03-02T07:21:26.097Z,13.47
2023-03-02T07:24:11.320Z,12.33
2023-03-02T07:26:56.736Z,12.83
2023-03-02T07:29:42.170Z,14.67
2023-03-02T07:32:27.771Z,13.37
2023-03-02T07:35:13.251Z,12.33
2023-03-02T07:37:58.206Z,13.03
2023-03-02T07:40:43.924Z,13.27
2023-03-02T07:43:29.305Z,13.57
2023-03-02T07:46:14.443Z,12.77
2023-03-02T07:48:59.974Z,14.07
2023-03-02T07:51:45.227Z,13.40
2023-03-02T07:54:31.040Z,13.70
2023-03-02T07:57:16.413Z,12.53
2023-03-02T08:00:02.406Z,15.00
2023-03-02T08:02:56.995Z,13.53
2023-03-02T08:05:42.676Z,14.17
2023-03-02T08:08:28.594Z,13.57
2023-03-02T08:11:16.456Z,13.87
2023-03-02T08:14:02.920Z,11.47
2023-03-02T08:16:48.192Z,11.43
2023-03-02T08:19:33.548Z,13.07
2023-03-02T08:22:18.780Z,14.07
2023-03-02T08:25:04.575Z,12.77
2023-03-02T08:27:50.300Z,15.70
2023-03-02T08:30:35.722Z,15.33
2023-03-02T08:33:21.211Z,14.23
2023-03-02T08:36:11.245Z,15.30
2023-03-02T08:38:56.282Z,12.20
2023-03-02T08:41:41.753Z,14.13
2023-03-02T08:44:27.372Z,14.97
2023-03-02T08:47:12.910Z,13.40
2023-03-02T08:49:58.150Z,15.53
2023-03-02T08:52:43.721Z,14.03
2023-03-02T08:55:29.077Z,14.83
2023-03-02T08:58:14.995Z,14.87
2023-03-02T09:01:00.302Z,14.33
2023-03-02T09:03:46.241Z,13.47
2023-03-02T09:06:34.528Z,14.97
2023-03-02T09:09:19.851Z,16.00
2023-03-02T09:12:05.048Z,13.67
2023-03-02T09:14:50.289Z,15.03
2023-03-02T09:17:35.506Z,16.33
2023-03-02T09:20:21.281Z,14.07
2023-03-02T09:23:06.707Z,13.50
2023-03-02T09:25:52.813Z,13.93
2023-03-02T09:28:38.637Z,15.07
2023-03-02T09:31:24.403Z,14.83
2023-03-02T09:34:09.708Z,14.93
2023-03-02T09:36:55.359Z,15.67
2023-03-02T09:39:40.643Z,15.93
2023-03-02T09:42:49.285Z,14.63
2023-03-02T09:45:56.334Z,18.70
2023-03-02T09:48:47.573Z,15.67
2023-03-02T09:51:39.742Z,16.27
2023-03-02T09:54:25.569Z,13.97
2023-03-02T09:57:22.595Z,13.20
2023-03-02T10:00:30.034Z,12.33
2023-03-02T10:03:22.770Z,11.73
2023-03-02T10:06:09.273Z,13.00
2023-03-02T10:08:55.136Z,14.07
2023-03-02T10:11:46.387Z,13.33
2023-03-02T10:14:39.081Z,12.50
2023-03-02T10:17:43.552Z,10.70
2023-03-02T10:20:37.718Z,11.57
2023-03-02T10:23:38.593Z,11.47
2023-03-02T10:26:32.301Z,11.33
2023-03-02T10:29:50.111Z,10.80
2023-03-02T10:32:43.561Z,12.23
2023-03-02T10:35:30.771Z,10.20
2023-03-02T10:38:22.390Z,9.60
2023-03-02T10:41:15.151Z,9.83
2023-03-02T10:44:23.736Z,11.83
2023-03-02T10:47:28.951Z,9.80
2023-03-02T10:50:22.118Z,12.63
2023-03-02T10:53:17.276Z,10.37
2023-03-02T10:56:05.499Z,11.53
2023-03-02T10:58:50.965Z,10.63
2023-03-02T11:01:36.352Z,9.23
2023-03-02T11:04:22.192Z,9.07
2023-03-02T11:07:28.407Z,10.60
2023-03-02T11:10:21.005Z,10.10
2023-03-02T11:13:19.612Z,9.00
2023-03-02T11:16:24.480Z,9.77
2023-03-02T11:19:34.829Z,9.57
2023-03-02T11:22:41.668Z,10.53
2023-03-02T11:25:35.450Z,9.83
2023-03-02T11:28:47.079Z,10.83
2023-03-02T11:31:41.346Z,10.30
2023-03-02T11:34:51.005Z,11.47
2023-03-02T11:37:42.644Z,9.27
2023-03-02T11:40:47.054Z,10.07
2023-03-02T11:43:32.721Z,9.07
2023-03-02T11:46:26.411Z,11.83
2023-03-02T11:49:18.790Z,9.97
2023-03-02T11:52:04.288Z,9.77
2023-03-02T11:54:55.456Z,8.47
2023-03-02T11:57:45.403Z,9.53
2023-03-02T12:00:36.839Z,10.73
2023-03-02T12:03:33.179Z,10.33
2023-03-02T12:06:18.697Z,10.27
2023-03-02T12:09:12.283Z,8.73
2023-03-02T12:12:14.911Z,10.70
2023-03-02T12:15:00.947Z,9.47
2023-03-02T12:17:46.576Z,7.77
2023-03-02T12:20:31.835Z,7.63
2023-03-02T12:23:23.553Z,6.50
2023-03-02T12:26:26.581Z,5.93
2023-03-02T12:29:12.059Z,5.63
2023-03-02T12:31:57.559Z,7.70
2023-03-02T12:34:51.732Z,6.07
2023-03-02T12:37:48.498Z,5.57
2023-03-02T12:41:02.484Z,4.70
2023-03-02T12:43:58.071Z,5.70
2023-03-02T12:46:48.961Z,5.80
2023-03-02T12:50:16.352Z,6.90
2023-03-02T12:53:04.575Z,5.10
2023-03-02T12:55:49.994Z,5.20
2023-03-02T12:58:35.697Z,6.33
2023-03-02T13:01:29.067Z,6.03
2023-03-02T13:04:26.981Z,6.17
2023-03-02T13:07:22.914Z,5.90
2023-03-02T13:10:30.624Z,7.27
2023-03-02T13:13:39.123Z,6.63
2023-03-02T13:16:24.737Z,6.37
2023-03-02T13:19:16.408Z,6.07
2023-03-02T13:22:01.817Z,6.30
2023-03-02T13:24:51.939Z,6.37
2023-03-02T13:27:37.426Z,7.37
2023-03-02T13:30:26.469Z,6.87
2023-03-02T13:33:23.803Z,5.37
2023-03-02T13:36:27.552Z,7.30
2023-03-02T13:39:28.000Z,6.37
2023-03-02T13:42:26.378Z,5.90
2023-03-02T13:45:22.757Z,6.57
2023-03-02T13:48:14.976Z,5.63
2023-03-02T13:51:16.073Z,6.33
2023-03-02T13:54:06.344Z,4.87
2023-03-02T13:56:52.842Z,5.93
2023-03-02T13:59:39.682Z,6.97
2023-03-02T14:02:29.682Z,5.80
2023-03-02T14:05:18.122Z,5.70
2023-03-02T14:08:03.330Z,5.70
2023-03-02T14:10:51.636Z,5.53
2023-03-02T14:13:47.575Z,4.80
2023-03-02T14:16:36.292Z,5.43
2023-03-02T14:19:22.080Z,5.53
2023-03-02T14:22:11.309Z,6.07
2023-03-02T14:24:56.365Z,5.53
2023-03-02T14:27:44.260Z,5.93
2023-03-02T14:30:29.488Z,5.33
2023-03-02T14:33:34.619Z,5.13
2023-03-02T14:36:28.895Z,5.60
2023-03-02T14:39:27.830Z,5.07
2023-03-02T14:42:16.066Z,7.30
2023-03-02T14:45:01.387Z,4.97
2023-03-02T14:47:47.145Z,5.63
2023-03-02T14:50:38.518Z,5.77
2023-03-02T14:53:29.718Z,7.13
2023-03-02T14:56:17.639Z,4.63
2023-03-02T14:59:02.860Z,6.40
2023-03-02T15:01:48.290Z,5.40
2023-03-02T15:04:34.256Z,11.97
2023-03-02T15:07:21.483Z,6.37
2023-03-02T15:10:08.941Z,6.50
2023-03-02T15:12:54.229Z,7.10
2023-03-02T15:15:41.159Z,6.50
2023-03-02T15:18:26.569Z,7.60
2023-03-02T15:21:17.644Z,7.63
2023-03-02T15:24:03.252Z,10.57
2023-03-02T15:26:52.806Z,7.93
2023-03-02T15:29:38.499Z,7.50
2023-03-02T15:32:23.864Z,7.50
2023-03-02T15:35:09.449Z,8.57
2023-03-02T15:37:55.044Z,8.07
2023-03-02T15:40:40.516Z,7.47
2023-03-02T15:43:26.097Z,7.63
2023-03-02T15:46:12.110Z,7.83
2023-03-02T15:48:57.859Z,9.67
2023-03-02T15:51:44.074Z,9.63
2023-03-02T15:54:32.539Z,7.97
2023-03-02T15:57:18.620Z,8.90
2023-03-02T16:00:05.463Z,7.47
2023-03-02T16:02:51.603Z,9.37
2023-03-02T16:05:37.252Z,7.00
2023-03-02T16:08:23.055Z,7.57
2023-03-02T16:11:10.230Z,8.27
2023-03-02T16:13:56.299Z,8.27
2023-03-02T16:16:43.414Z,9.07
2023-03-02T16:19:29.438Z,7.67
2023-03-02T16:22:15.326Z,10.13
2023-03-02T16:25:01.028Z,7.83
2023-03-02T16:27:47.120Z,9.40
2023-03-02T16:30:39.482Z,7.20
2023-03-02T16:33:29.148Z,9.30
2023-03-02T16:36:14.887Z,9.13
2023-03-02T16:38:59.993Z,7.30
2023-03-02T16:41:45.472Z,10.17
2023-03-02T16:44:31.006Z,9.07
2023-03-02T16:47:16.406Z,10.83
2023-03-02T16:50:02.558Z,11.07
2023-03-02T16:52:48.022Z,9.00
2023-03-02T16:55:33.292Z,9.27
2023-03-02T16:58:18.801Z,10.67
2023-03-02T17:01:09.047Z,9.57
2023-03-02T17:03:54.506Z,9.83
2023-03-02T17:06:59.720Z,9.33
2023-03-02T17:09:45.301Z,10.30
2023-03-02T17:12:30.516Z,10.23
2023-03-02T17:15:15.653Z,11.67
2023-03-02T17:18:01.189Z,9.90
2023-03-02T17:20:51.446Z,9.83
2023-03-02T17:23:37.072Z,10.67
2023-03-02T17:26:22.859Z,11.60
2023-03-02T17:29:08.129Z,11.67
2023-03-02T17:31:53.906Z,11.20
2023-03-02T17:34:39.275Z,10.23
2023-03-02T17:37:24.949Z,12.93
2023-03-02T17:40:15.036Z,12.57
2023-03-02T17:43:00.429Z,13.57
2023-03-02T17:45:45.750Z,12.60
2023-03-02T17:48:31.329Z,10.70
2023-03-02T17:51:17.689Z,14.37
2023-03-02T17:54:04.211Z,12.70
2023-03-02T17:56:49.818Z,13.67
2023-03-02T17:59:35.691Z,12.53
2023-03-02T18:02:20.895Z,14.27
2023-03-02T18:05:07.232Z,17.53
2023-03-02T18:07:52.604Z,13.43
2023-03-02T18:10:37.974Z,13.37
2023-03-02T18:13:23.542Z,14.17
2023-03-02T18:16:09.288Z,14.13
2023-03-02T18:18:55.588Z,14.50
2023-03-02T18:21:41.053Z,15.97
2023-03-02T18:24:26.210Z,16.87
2023-03-02T18:27:11.938Z,15.07
2023-03-02T18:29:57.554Z,18.23
2023-03-02T18:32:44.190Z,16.27
2023-03-02T18:35:29.452Z,15.23
2023-03-02T18:38:14.945Z,16.97
2023-03-02T18:41:03.545Z,14.87
2023-03-02T18:43:49.668Z,19.17
2023-03-02T18:46:35.445Z,15.87
2023-03-02T18:49:21.218Z,17.13
2023-03-02T18:52:06.649Z,15.50
2023-03-02T18:54:52.096Z,16.57
2023-03-02T18:57:37.743Z,18.57
2023-03-02T19:00:28.039Z,18.00
2023-03-02T19:03:15.014Z,20.37
2023-03-02T19:06:02.024Z,19.47
2023-03-02T19:08:47.453Z,21.13
2023-03-02T19:11:33.045Z,19.27
2023-03-02T19:14:18.454Z,18.40
2023-03-02T19:17:03.714Z,19.57
2023-03-02T19:19:49.227Z,20.90
2023-03-02T19:22:34.750Z,18.93
2023-03-02T19:25:20.123Z,20.40
2023-03-02T19:28:07.084Z,20.40
2023-03-02T19:30:52.259Z,21.03
2023-03-02T19:33:39.864Z,21.83
2023-03-02T19:36:25.617Z,24.83
2023-03-02T19:39:11.024Z,21.77
2023-03-02T19:41:56.445Z,21.70
2023-03-02T19:44:41.728Z,19.57
2023-03-02T19:47:27.082Z,22.10
2023-03-02T19:50:13.694Z,20.57
2023-03-02T19:52:59.222Z,20.33
2023-03-02T19:55:45.319Z,19.00
2023-03-02T19:58:30.643Z,25.63
2023-03-02T20:01:18.553Z,21.23
2023-03-02T20:04:04.259Z,24.73
2023-03-02T20:06:49.510Z,23.53
2023-03-02T20:09:34.768Z,25.00
2023-03-02T20:12:20.042Z,24.40
2023-03-02T20:15:06.327Z,23.77
2023-03-02T20:17:52.233Z,21.73
2023-03-02T20:20:37.360Z,23.00
2023-03-02T20:23:22.744Z,23.80
2023-03-02T20:26:08.413Z,25.23
2023-03-02T20:28:57.087Z,304.00
2023-03-02T20:31:43.720Z,35.17
2023-03-02T20:34:29.877Z,24.53
2023-03-02T20:37:15.853Z,29.47
2023-03-02T20:40:02.203Z,23.87
2023-03-02T20:42:47.579Z,21.70
2023-03-02T20:45:33.390Z,23.23
2023-03-02T20:48:18.858Z,24.23
2023-03-02T20:51:05.522Z,24.03
2023-03-02T20:53:55.490Z,23.60
2023-03-02T20:56:42.962Z,27.63
2023-03-02T20:59:29.301Z,24.93
2023-03-02T21:02:20.526Z,26.17
2023-03-02T21:05:07.303Z,25.83
2023-03-02T21:07:54.122Z,28.07
2023-03-02T21:10:42.526Z,26.23
2023-03-02T21:13:30.249Z,28.03
2023-03-02T21:16:29.244Z,29.30
2023-03-02T21:19:17.365Z,28.10
2023-03-02T21:22:03.006Z,29.50
2023-03-02T21:24:48.236Z,28.00
2023-03-02T21:27:33.604Z,27.87
2023-03-02T21:30:23.291Z,28.30
2023-03-02T21:33:09.124Z,25.17
2023-03-02T21:35:54.583Z,28.10
2023-03-02T21:38:40.268Z,28.10
2023-03-02T21:41:25.743Z,30.27
2023-03-02T21:44:11.224Z,32.33
2023-03-02T21:46:56.615Z,29.70
2023-03-02T21:49:41.989Z,31.60
2023-03-02T21:52:27.627Z,30.83
2023-03-02T21:55:13.317Z,33.07
2023-03-02T21:57:59.038Z,35.97
2023-03-02T22:00:45.892Z,38.23
2023-03-02T22:03:31.666Z,38.07
2023-03-02T22:06:20.797Z,38.93
2023-03-02T22:09:06.086Z,40.80
2023-03-02T22:11:51.237Z,40.80
2023-03-02T22:14:37.451Z,37.60
2023-03-02T22:17:24.825Z,47.37
2023-03-02T22:20:17.141Z,47.90
2023-03-02T22:23:02.206Z,47.67
2023-03-02T22:25:53.414Z,48.07
2023-03-02T22:28:38.780Z,48.10
2023-03-02T22:31:24.205Z,48.57
2023-03-02T22:34:15.327Z,51.33
2023-03-02T22:37:10.750Z,56.63
2023-03-02T22:40:00.849Z,56.63
2023-03-02T22:42:46.012Z,54.40
2023-03-02T22:45:31.568Z,57.53
2023-03-02T22:48:19.883Z,59.20
2023-03-02T22:51:24.061Z,61.60
2023-03-02T22:54:22.682Z,60.90
2023-03-02T22:57:29.257Z,60.97
2023-03-02T23:00:14.592Z,63.13
2023-03-02T23:03:00.275Z,60.80
2023-03-02T23:05:47.769Z,63.13
2023-03-02T23:08:33.078Z,65.40
2023-03-02T23:11:21.500Z,61.73
2023-03-02T23:14:23.496Z,65.20
2023-03-02T23:17:27.194Z,69.27
2023-03-02T23:20:14.851Z,64.67
2023-03-02T23:23:00.241Z,65.80
2023-03-02T23:25:46.398Z,65.47
2023-03-02T23:28:31.724Z,61.80
2023-03-02T23:31:17.650Z,61.57
2023-03-02T23:34:02.987Z,66.40
2023-03-02T23:36:48.140Z,75.10
2023-03-02T23:39:33.555Z,73.63
2023-03-02T23:42:18.739Z,75.83
2023-03-02T23:45:04.924Z,116.20
2023-03-02T23:47:50.154Z,109.73
2023-03-02T23:50:35.347Z,118.63
2023-03-02T23:53:20.852Z,93.00
2023-03-02T23:56:06.459Z,136.77
2023-03-02T23:58:51.800Z,91.07
